Time;durP1;ratioP1;P1;durP2;ratioP2;P2;SDS_P1;SDS_P2;PMS_P1;PMS_P2;Temp;Humidity;BMP_temperature;BMP_pressure;BME280_temperature;BME280_humidity;BME280_pressure;Samples;Min_cycle;Max_cycle;Signal;HPM_P1;HPM_P2
2021/12/03 00:00:48;;;;;;;14.73;8.65;;;1.30;78.30;;;;;;5071464;28;46349;-66
2021/12/03 00:03:14;;;;;;;15.27;8.77;;;1.30;78.20;;;;;;5078691;28;48901;-67
2021/12/03 00:05:41;;;;;;;13.70;7.53;;;1.30;78.30;;;;;;5076320;27;46464;-66
2021/12/03 00:08:07;;;;;;;14.35;8.82;;;1.30;78.20;;;;;;5076636;27;46385;-65
2021/12/03 00:10:35;;;;;;;14.65;8.77;;;1.40;78.00;;;;;;5073588;27;46461;-65
2021/12/03 00:13:01;;;;;;;13.85;8.63;;;1.40;77.60;;;;;;5073611;28;46423;-66
2021/12/03 00:15:29;;;;;;;18.30;10.00;;;1.50;77.60;;;;;;5073797;28;46413;-65
2021/12/03 00:17:55;;;;;;;14.90;8.70;;;1.50;78.80;;;;;;5076007;27;46582;-66
2021/12/03 00:20:24;;;;;;;16.52;8.45;;;1.40;77.70;;;;;;5071587;27;46617;-64
2021/12/03 00:22:51;;;;;;;16.13;8.15;;;1.40;78.20;;;;;;5069512;28;48895;-65
2021/12/03 00:25:17;;;;;;;11.00;7.07;;;1.20;78.70;;;;;;5070037;28;46305;-66
2021/12/03 00:27:43;;;;;;;14.00;7.93;;;1.20;78.80;;;;;;5071721;28;45755;-66
2021/12/03 00:30:12;;;;;;;15.05;8.05;;;1.20;79.20;;;;;;5076413;27;46428;-67
2021/12/03 00:32:39;;;;;;;9.98;7.05;;;1.10;79.40;;;;;;5073125;28;47322;-65
2021/12/03 00:35:07;;;;;;;14.93;7.97;;;1.20;79.80;;;;;;5070983;28;46440;-65
2021/12/03 00:37:33;;;;;;;12.00;6.78;;;1.20;80.10;;;;;;5073360;27;46523;-66
2021/12/03 00:39:59;;;;;;;9.70;6.13;;;1.10;80.20;;;;;;5066597;28;46561;-64
2021/12/03 00:42:27;;;;;;;10.05;6.72;;;1.10;80.40;;;;;;5069030;28;48724;-66
2021/12/03 00:44:55;;;;;;;11.73;7.32;;;1.10;80.30;;;;;;5072131;28;45822;-65
2021/12/03 00:47:22;;;;;;;10.98;6.72;;;1.10;80.30;;;;;;5074322;27;46394;-65
2021/12/03 00:49:48;;;;;;;14.88;7.40;;;0.90;80.40;;;;;;5073598;28;46323;-66
2021/12/03 00:52:14;;;;;;;12.93;7.37;;;0.70;80.60;;;;;;5073629;27;47921;-64
2021/12/03 00:54:40;;;;;;;11.80;6.70;;;0.60;81.00;;;;;;5077249;27;46371;-66
2021/12/03 00:57:06;;;;;;;11.02;6.63;;;0.50;81.20;;;;;;5076281;28;46376;-66
2021/12/03 00:59:32;;;;;;;11.87;7.43;;;0.30;81.40;;;;;;5073905;27;46582;-66
2021/12/03 01:01:58;;;;;;;13.40;7.20;;;0.20;81.70;;;;;;5070683;27;47158;-66
2021/12/03 01:04:23;;;;;;;13.90;7.53;;;0.20;81.80;;;;;;5072346;27;46459;-64
2021/12/03 01:06:49;;;;;;;12.77;7.40;;;0.20;81.70;;;;;;5074504;28;46530;-64
2021/12/03 01:09:20;;;;;;;13.82;7.60;;;0.20;81.20;;;;;;5068753;28;46175;-66
2021/12/03 01:11:46;;;;;;;11.15;6.20;;;0.30;80.60;;;;;;5067645;28;48025;-65
2021/12/03 01:14:12;;;;;;;11.60;6.70;;;0.40;80.00;;;;;;5076376;28;46370;-65
2021/12/03 01:16:38;;;;;;;13.93;7.50;;;0.50;79.50;;;;;;5071911;28;46349;-66
2021/12/03 01:19:03;;;;;;;15.30;7.17;;;0.60;79.10;;;;;;5074546;27;46324;-66
2021/12/03 01:21:29;;;;;;;11.80;7.67;;;0.80;78.60;;;;;;5071627;27;48181;-66
2021/12/03 01:23:56;;;;;;;17.00;9.32;;;0.90;79.40;;;;;;5069789;27;46454;-67
2021/12/03 01:26:23;;;;;;;17.77;8.75;;;1.00;77.90;;;;;;5070440;27;46478;-67
2021/12/03 01:28:49;;;;;;;18.77;8.65;;;1.10;77.70;;;;;;5071283;28;46385;-65
2021/12/03 01:31:15;;;;;;;13.63;7.95;;;1.20;77.60;;;;;;5065267;27;48786;-66
2021/12/03 01:33:42;;;;;;;16.75;9.45;;;1.20;77.40;;;;;;5070113;28;46634;-67
2021/12/03 01:36:07;;;;;;;15.80;8.45;;;1.40;77.50;;;;;;5069082;28;46405;-65
2021/12/03 01:38:33;;;;;;;17.00;8.27;;;1.40;77.10;;;;;;5070902;28;46491;-68
2021/12/03 01:41:00;;;;;;;16.40;8.13;;;1.40;77.00;;;;;;5074029;27;46341;-65
2021/12/03 01:43:26;;;;;;;15.00;8.55;;;1.50;77.10;;;;;;5069430;27;46404;-66
2021/12/03 01:45:56;;;;;;;13.98;8.35;;;1.50;77.20;;;;;;5078525;28;45782;-66
2021/12/03 01:48:23;;;;;;;12.85;8.10;;;1.50;77.20;;;;;;5074806;28;46407;-67
2021/12/03 01:50:49;;;;;;;17.08;8.65;;;1.50;77.20;;;;;;5067336;28;48731;-66
2021/12/03 01:53:18;;;;;;;15.82;7.85;;;1.50;77.30;;;;;;5084399;27;46413;-66
2021/12/03 01:55:46;;;;;;;16.13;8.02;;;1.40;77.60;;;;;;5078517;28;46329;-67
2021/12/03 01:58:13;;;;;;;13.02;7.32;;;1.30;79.00;;;;;;5072140;28;46303;-67
2021/12/03 02:00:44;;;;;;;18.50;7.53;;;1.30;78.00;;;;;;5070147;27;48689;-66
2021/12/03 02:03:14;;;;;;;12.82;7.60;;;1.30;79.10;;;;;;5071215;28;46467;-68
2021/12/03 02:05:40;;;;;;;16.25;6.97;;;1.30;77.90;;;;;;5082600;28;46416;-66
2021/12/03 02:08:06;;;;;;;20.08;7.13;;;1.30;77.80;;;;;;5074333;27;46292;-67
2021/12/03 02:10:33;;;;;;;11.75;6.20;;;1.30;77.70;;;;;;5076474;27;47766;-66
2021/12/03 02:12:59;;;;;;;12.95;6.47;;;1.30;77.70;;;;;;5077078;27;46366;-67
2021/12/03 02:15:26;;;;;;;11.20;6.40;;;1.30;77.60;;;;;;5074912;28;46431;-65
2021/12/03 02:17:52;;;;;;;7.15;4.70;;;1.30;77.60;;;;;;5072586;27;46610;-67
2021/12/03 02:20:18;;;;;;;9.57;5.67;;;1.30;77.80;;;;;;5073865;28;48085;-67
2021/12/03 02:22:44;;;;;;;6.82;4.93;;;1.20;78.10;;;;;;5087524;27;46639;-66
2021/12/03 02:25:14;;;;;;;8.57;4.30;;;1.20;78.30;;;;;;5070582;28;46330;-66
2021/12/03 02:27:40;;;;;;;8.38;4.82;;;1.10;78.70;;;;;;5072830;28;46459;-67
2021/12/03 02:30:08;;;;;;;9.23;5.40;;;1.10;79.10;;;;;;5073715;27;47911;-67
2021/12/03 02:32:34;;;;;;;8.13;5.32;;;1.10;79.20;;;;;;5069708;27;46687;-64
2021/12/03 02:35:00;;;;;;;8.10;4.65;;;1.10;79.20;;;;;;5071850;27;46378;-65
2021/12/03 02:37:26;;;;;;;9.48;4.88;;;1.20;78.90;;;;;;5076398;28;46281;-67
2021/12/03 02:39:52;;;;;;;9.07;4.60;;;1.30;78.80;;;;;;5074619;28;46476;-65
2021/12/03 02:42:17;;;;;;;7.93;5.57;;;1.40;78.60;;;;;;5066312;28;46535;-65
2021/12/03 02:44:44;;;;;;;9.33;5.47;;;1.50;78.20;;;;;;5082630;28;45794;-66
2021/12/03 02:47:10;;;;;;;9.45;5.60;;;1.50;77.70;;;;;;5071915;28;46438;-65
2021/12/03 02:49:38;;;;;;;10.40;6.57;;;1.60;77.50;;;;;;5073780;28;47101;-66
2021/12/03 02:52:04;;;;;;;7.50;4.75;;;1.70;77.20;;;;;;5072388;28;46331;-65
2021/12/03 02:54:30;;;;;;;8.43;4.90;;;1.70;77.10;;;;;;5081525;28;46377;-65
2021/12/03 02:56:56;;;;;;;6.70;4.95;;;1.70;77.00;;;;;;5074822;28;46614;-67
2021/12/03 02:59:22;;;;;;;10.97;5.60;;;1.80;77.00;;;;;;5074796;28;46343;-67
2021/12/03 03:01:48;;;;;;;8.27;4.80;;;1.80;77.10;;;;;;5073724;28;46296;-67
2021/12/03 03:04:13;;;;;;;7.90;5.30;;;1.80;77.00;;;;;;5072681;28;46525;-65
2021/12/03 03:06:39;;;;;;;11.43;4.67;;;1.80;77.10;;;;;;5069631;28;46437;-66
2021/12/03 03:09:09;;;;;;;7.80;5.40;;;1.80;77.20;;;;;;5071138;28;47232;-66
2021/12/03 03:11:35;;;;;;;8.98;5.63;;;1.80;77.10;;;;;;5075051;28;46467;-67
2021/12/03 03:14:01;;;;;;;17.27;5.87;;;1.80;76.90;;;;;;5075248;28;46345;-66
2021/12/03 03:16:27;;;;;;;8.07;5.18;;;1.80;77.10;;;;;;5077637;28;46416;-66
2021/12/03 03:18:53;;;;;;;8.00;4.55;;;1.80;77.20;;;;;;5075800;28;46636;-65
2021/12/03 03:21:19;;;;;;;8.33;4.70;;;1.80;77.10;;;;;;5077579;27;45846;-66
2021/12/03 03:23:45;;;;;;;7.40;4.63;;;1.80;76.90;;;;;;5070411;27;45996;-65
2021/12/03 03:26:11;;;;;;;6.35;3.85;;;1.80;77.00;;;;;;5076646;28;46560;-66
2021/12/03 03:28:39;;;;;;;5.90;4.40;;;1.70;77.10;;;;;;5074034;28;46452;-64
2021/12/03 03:31:06;;;;;;;7.32;5.00;;;1.50;77.60;;;;;;5078730;28;46364;-65
2021/12/03 03:33:32;;;;;;;6.45;4.43;;;1.40;77.90;;;;;;5076069;27;46377;-64
2021/12/03 03:35:58;;;;;;;8.52;4.95;;;1.50;77.60;;;;;;5069632;28;46310;-65
2021/12/03 03:38:27;;;;;;;7.13;4.90;;;1.70;77.30;;;;;;5068979;28;48667;-66
2021/12/03 03:40:54;;;;;;;17.08;4.45;;;1.80;76.90;;;;;;5070224;28;46234;-65
2021/12/03 03:43:20;;;;;;;8.68;4.65;;;1.80;76.70;;;;;;5072074;28;46488;-65
2021/12/03 03:45:47;;;;;;;7.13;4.90;;;1.80;76.50;;;;;;5073538;27;46450;-66
2021/12/03 03:48:13;;;;;;;7.25;4.30;;;1.70;76.60;;;;;;5072431;27;46224;-65
2021/12/03 03:50:39;;;;;;;8.48;4.28;;;1.60;76.70;;;;;;5077761;28;46429;-66
2021/12/03 03:53:05;;;;;;;6.22;4.40;;;1.60;77.00;;;;;;5068160;28;46361;-66
2021/12/03 03:55:32;;;;;;;7.18;4.53;;;1.50;77.00;;;;;;5078706;28;46442;-65
2021/12/03 03:58:00;;;;;;;7.85;4.43;;;1.60;76.80;;;;;;5067998;28;48010;-65
2021/12/03 04:00:41;;;;;;;6.63;4.28;;;1.70;76.50;;;;;;5073249;28;46466;-65
2021/12/03 04:03:09;;;;;;;9.15;5.20;;;1.70;76.40;;;;;;5073722;28;46452;-66
2021/12/03 04:05:36;;;;;;;8.90;5.18;;;1.80;76.40;;;;;;5071483;28;46395;-65
2021/12/03 04:08:02;;;;;;;9.00;5.10;;;1.80;76.20;;;;;;5071488;28;46153;-65
2021/12/03 04:10:28;;;;;;;7.72;5.13;;;1.80;76.20;;;;;;5072254;28;46382;-67
2021/12/03 04:12:54;;;;;;;6.63;5.20;;;1.80;76.30;;;;;;5068213;28;46304;-65
2021/12/03 04:15:20;;;;;;;8.87;4.63;;;1.80;76.30;;;;;;5074849;28;46276;-65
2021/12/03 04:17:46;;;;;;;9.20;5.00;;;1.80;76.40;;;;;;5073093;27;47818;-66
2021/12/03 04:20:15;;;;;;;8.50;5.97;;;1.80;76.40;;;;;;5078625;28;46356;-65
2021/12/03 04:22:42;;;;;;;11.35;5.55;;;1.70;76.30;;;;;;5072163;28;46505;-65
2021/12/03 04:25:12;;;;;;;8.07;5.15;;;1.70;76.40;;;;;;5070382;28;46017;-67
2021/12/03 04:27:38;;;;;;;7.70;4.95;;;1.70;76.70;;;;;;5077344;28;46363;-65
2021/12/03 04:30:08;;;;;;;8.13;5.97;;;1.70;76.40;;;;;;5070748;28;46445;-66
2021/12/03 04:32:34;;;;;;;8.77;5.63;;;1.70;76.20;;;;;;5088207;27;45782;-67
2021/12/03 04:35:00;;;;;;;7.77;5.17;;;1.70;76.40;;;;;;5073851;28;46577;-66
2021/12/03 04:37:26;;;;;;;10.37;6.03;;;1.70;76.30;;;;;;5072057;28;47912;-67
2021/12/03 04:39:51;;;;;;;9.00;5.50;;;1.70;76.40;;;;;;5076236;28;46458;-65
2021/12/03 04:42:17;;;;;;;9.40;5.50;;;1.70;76.50;;;;;;5073544;28;46782;-66
2021/12/03 04:44:43;;;;;;;7.22;5.40;;;1.70;76.50;;;;;;5066143;28;46588;-67
2021/12/03 04:47:09;;;;;;;7.97;5.20;;;1.70;76.40;;;;;;5073911;28;46418;-65
2021/12/03 04:49:35;;;;;;;7.77;5.03;;;1.70;76.40;;;;;;5068469;28;46364;-65
2021/12/03 04:52:00;;;;;;;9.57;6.00;;;1.70;76.30;;;;;;5069890;28;45797;-64
2021/12/03 04:54:26;;;;;;;9.77;6.30;;;1.70;76.20;;;;;;5072584;28;46375;-65
2021/12/03 04:56:54;;;;;;;9.50;6.30;;;1.70;76.30;;;;;;5072863;28;46480;-66
2021/12/03 04:59:21;;;;;;;10.90;5.60;;;1.70;76.30;;;;;;5071279;28;46224;-65
2021/12/03 05:01:47;;;;;;;13.43;5.55;;;1.70;76.30;;;;;;5071777;27;46453;-66
2021/12/03 05:04:12;;;;;;;9.90;6.07;;;1.70;76.30;;;;;;5070601;28;46698;-67
2021/12/03 05:06:56;;;;;;;8.23;5.70;;;1.70;76.20;;;;;;5070617;28;47178;-65
2021/12/03 05:09:23;;;;;;;8.45;5.68;;;1.70;76.30;;;;;;5070663;28;46465;-65
2021/12/03 05:11:49;;;;;;;8.60;6.47;;;1.70;76.30;;;;;;5069848;28;46760;-66
2021/12/03 05:14:15;;;;;;;8.00;5.60;;;1.60;76.10;;;;;;5071451;27;46550;-65
2021/12/03 05:16:40;;;;;;;9.20;5.57;;;1.60;76.60;;;;;;5072350;28;47819;-67
2021/12/03 05:19:06;;;;;;;8.40;5.70;;;1.50;76.80;;;;;;5075393;28;46342;-65
2021/12/03 05:21:32;;;;;;;9.93;5.77;;;1.50;76.80;;;;;;5074866;28;45871;-67
2021/12/03 05:26:43;;;;;;;8.15;5.45;;;1.50;76.70;;;;;;5075692;28;46388;-66
2021/12/03 05:29:09;;;;;;;8.15;4.75;;;1.40;76.70;;;;;;5075652;27;46510;-66
2021/12/03 05:31:37;;;;;;;10.82;5.93;;;1.50;76.70;;;;;;5071952;27;46523;-66
2021/12/03 05:34:05;;;;;;;8.05;5.25;;;1.50;76.60;;;;;;5072297;27;46440;-68
2021/12/03 05:36:31;;;;;;;10.15;4.70;;;1.40;76.40;;;;;;5074511;27;48028;-65
2021/12/03 05:38:57;;;;;;;8.90;4.80;;;1.40;76.70;;;;;;5068632;28;46297;-65
2021/12/03 05:41:23;;;;;;;8.57;5.25;;;1.40;76.80;;;;;;5069725;28;46384;-65
2021/12/03 05:43:49;;;;;;;7.68;5.05;;;1.40;76.70;;;;;;5063587;28;46386;-65
2021/12/03 05:46:15;;;;;;;9.90;5.70;;;1.50;76.70;;;;;;5072612;28;48813;-65
2021/12/03 05:48:40;;;;;;;9.13;5.37;;;1.40;76.60;;;;;;5072144;27;46445;-65
2021/12/03 05:51:06;;;;;;;6.93;4.70;;;1.50;76.60;;;;;;5073639;28;46372;-66
2021/12/03 05:53:33;;;;;;;8.97;4.73;;;1.50;76.40;;;;;;5083692;27;46604;-66
2021/12/03 05:55:59;;;;;;;9.57;5.15;;;1.60;76.20;;;;;;5075828;28;47214;-65
2021/12/03 05:58:25;;;;;;;11.20;5.10;;;1.70;75.90;;;;;;5066180;28;46313;-66
2021/12/03 06:00:51;;;;;;;8.23;5.97;;;1.70;75.80;;;;;;5065021;28;45755;-66
2021/12/03 06:03:17;;;;;;;7.28;5.05;;;1.70;75.80;;;;;;5068202;28;46538;-67
2021/12/03 06:05:43;;;;;;;8.53;5.33;;;1.80;75.60;;;;;;5068433;28;46463;-66
2021/12/03 06:08:10;;;;;;;8.52;5.70;;;1.90;75.30;;;;;;5069391;28;45788;-65
2021/12/03 06:10:36;;;;;;;9.68;5.63;;;1.90;75.10;;;;;;5073308;27;46465;-67
2021/12/03 06:13:02;;;;;;;9.45;4.93;;;1.80;75.40;;;;;;5072092;27;46419;-65
2021/12/03 06:15:29;;;;;;;10.25;5.50;;;1.70;75.50;;;;;;5066206;28;48186;-66
2021/12/03 06:17:56;;;;;;;8.52;5.20;;;1.60;75.70;;;;;;5073336;27;46480;-66
2021/12/03 06:20:22;;;;;;;8.88;5.00;;;1.50;76.00;;;;;;5066258;28;45700;-66
2021/12/03 06:22:48;;;;;;;6.68;4.35;;;1.50;76.20;;;;;;5069851;28;46303;-66
2021/12/03 06:25:14;;;;;;;7.40;5.10;;;1.50;76.40;;;;;;5071023;28;47858;-65
2021/12/03 06:27:41;;;;;;;8.27;5.15;;;1.40;76.40;;;;;;5072983;27;46513;-66
2021/12/03 06:30:13;;;;;;;7.20;4.97;;;1.40;76.60;;;;;;5084279;27;46352;-67
2021/12/03 06:32:39;;;;;;;9.15;4.97;;;1.40;76.70;;;;;;5077417;28;46350;-66
2021/12/03 06:35:08;;;;;;;8.00;4.82;;;1.30;76.80;;;;;;5071577;28;48930;-67
2021/12/03 06:37:34;;;;;;;8.48;5.50;;;1.20;77.10;;;;;;5077229;28;46530;-67
2021/12/03 06:40:00;;;;;;;8.03;5.57;;;1.10;77.80;;;;;;5077957;27;46972;-67
2021/12/03 06:42:26;;;;;;;8.68;4.68;;;0.90;78.20;;;;;;5081175;27;46473;-65
2021/12/03 06:44:52;;;;;;;9.95;4.88;;;0.80;78.40;;;;;;5078666;27;46391;-66
2021/12/03 06:47:18;;;;;;;10.20;5.53;;;0.70;78.70;;;;;;5073831;27;46391;-67
2021/12/03 06:49:44;;;;;;;8.10;3.93;;;0.60;78.90;;;;;;5070817;27;46440;-64
2021/12/03 06:52:14;;;;;;;7.57;5.03;;;0.50;79.10;;;;;;5074178;28;46456;-66
2021/12/03 06:54:41;;;;;;;8.77;5.13;;;0.40;79.40;;;;;;5070702;28;47485;-66
2021/12/03 06:57:08;;;;;;;8.60;5.25;;;0.40;79.70;;;;;;5071264;27;46347;-66
2021/12/03 06:59:35;;;;;;;11.63;5.85;;;0.30;79.70;;;;;;5077411;28;46282;-66
2021/12/03 07:02:01;;;;;;;9.15;5.45;;;0.20;79.80;;;;;;5078474;28;46345;-67
2021/12/03 07:04:27;;;;;;;10.98;6.13;;;0.20;79.80;;;;;;5075994;28;46348;-65
2021/12/03 07:06:52;;;;;;;10.60;6.43;;;0.10;79.80;;;;;;5077613;27;45892;-66
2021/12/03 07:09:19;;;;;;;10.90;5.87;;;0.00;79.60;;;;;;5073460;28;46291;-67
2021/12/03 07:11:45;;;;;;;16.67;9.98;;;0.00;79.50;;;;;;5068070;27;46531;-66
2021/12/03 07:14:11;;;;;;;18.90;9.60;;;-0.10;79.30;;;;;;5069407;27;47958;-67
2021/12/03 07:16:37;;;;;;;12.65;7.70;;;-0.10;79.00;;;;;;5073518;28;45965;-66
2021/12/03 07:19:04;;;;;;;12.97;7.67;;;-0.10;78.80;;;;;;5070950;28;45764;-65
2021/12/03 07:21:30;;;;;;;13.27;6.90;;;-0.10;79.00;;;;;;5076659;28;46390;-66
2021/12/03 07:23:55;;;;;;;13.03;8.13;;;-0.20;78.90;;;;;;5075909;27;46237;-65
2021/12/03 07:26:23;;;;;;;12.80;7.87;;;-0.20;78.90;;;;;;5073432;28;46260;-67
2021/12/03 07:28:50;;;;;;;16.77;8.02;;;-0.20;78.80;;;;;;5079645;28;46443;-65
2021/12/03 07:31:16;;;;;;;21.95;10.30;;;-0.10;78.70;;;;;;5073175;28;46417;-67
2021/12/03 07:33:42;;;;;;;15.75;10.80;;;-0.10;78.50;;;;;;5071294;27;48969;-67
2021/12/03 07:36:08;;;;;;;15.17;9.60;;;-0.10;78.30;;;;;;5070744;28;46421;-67
2021/12/03 07:38:35;;;;;;;19.00;8.50;;;0.00;78.80;;;;;;5075086;28;45907;-67
2021/12/03 07:41:01;;;;;;;13.35;9.00;;;0.10;78.70;;;;;;5073781;27;46425;-68
2021/12/03 07:43:27;;;;;;;16.45;9.50;;;0.10;78.50;;;;;;5071079;28;46281;-65
2021/12/03 07:45:53;;;;;;;25.40;10.00;;;0.10;78.50;;;;;;5069388;27;46363;-66
2021/12/03 07:48:21;;;;;;;19.70;10.93;;;0.10;78.40;;;;;;5075914;27;46538;-66
2021/12/03 07:50:48;;;;;;;25.80;14.45;;;0.10;78.30;;;;;;5072801;27;46448;-66
2021/12/03 07:53:17;;;;;;;47.78;22.38;;;0.20;78.30;;;;;;5073234;28;47300;-66
2021/12/03 07:55:44;;;;;;;46.00;21.90;;;0.20;78.20;;;;;;5071663;28;46679;-66
2021/12/03 07:58:10;;;;;;;67.38;31.75;;;0.10;78.10;;;;;;5071352;28;46360;-67
2021/12/03 08:00:36;;;;;;;20.23;14.30;;;0.10;78.00;;;;;;5073170;28;46412;-64
2021/12/03 08:03:02;;;;;;;18.73;8.77;;;0.10;78.10;;;;;;5068174;27;46296;-65
2021/12/03 08:05:28;;;;;;;13.35;7.78;;;0.10;78.10;;;;;;5076408;28;46374;-65
2021/12/03 08:07:54;;;;;;;11.80;7.57;;;0.10;78.20;;;;;;5069770;28;46412;-64
2021/12/03 08:10:20;;;;;;;15.55;7.82;;;0.10;78.00;;;;;;5073183;27;46673;-65
2021/12/03 08:12:46;;;;;;;16.27;10.93;;;0.20;77.90;;;;;;5069878;27;46489;-65
2021/12/03 08:15:14;;;;;;;15.77;8.55;;;0.30;77.90;;;;;;5071473;28;46514;-66
2021/12/03 08:17:40;;;;;;;13.20;8.18;;;0.40;77.80;;;;;;5077149;27;46487;-65
2021/12/03 08:20:07;;;;;;;12.77;8.50;;;0.50;77.60;;;;;;5072502;27;46673;-65
2021/12/03 08:22:33;;;;;;;13.30;8.27;;;0.50;77.60;;;;;;5073841;28;49294;-65
2021/12/03 08:24:59;;;;;;;14.43;7.93;;;0.50;77.70;;;;;;5068945;27;45896;-66
2021/12/03 08:27:24;;;;;;;12.93;7.90;;;0.50;77.70;;;;;;5067685;28;46423;-65
2021/12/03 08:29:50;;;;;;;12.77;7.70;;;0.50;77.90;;;;;;5072211;27;46759;-65
2021/12/03 08:32:16;;;;;;;11.27;7.33;;;0.50;77.90;;;;;;5071930;27;46489;-66
2021/12/03 08:34:42;;;;;;;12.95;8.07;;;0.40;77.90;;;;;;5072027;28;46658;-66
2021/12/03 08:37:08;;;;;;;14.33;7.30;;;0.40;77.80;;;;;;5072814;28;46167;-65
2021/12/03 08:39:35;;;;;;;9.85;5.50;;;0.50;77.70;;;;;;5073572;28;46407;-66
2021/12/03 08:42:01;;;;;;;7.90;5.63;;;0.50;77.50;;;;;;5074596;28;48175;-66
2021/12/03 08:44:27;;;;;;;8.25;5.45;;;0.50;77.50;;;;;;5075382;28;46503;-66
2021/12/03 08:47:02;;;;;;;10.33;6.07;;;0.50;77.50;;;;;;5074477;27;46330;-66
2021/12/03 08:57:16;;;;;;;18.83;9.77;;;0.50;77.70;;;;;;5068525;28;46316;-64
2021/12/03 08:59:42;;;;;;;10.63;6.75;;;0.60;77.60;;;;;;5071080;28;46311;-66
2021/12/03 09:02:08;;;;;;;9.20;5.60;;;0.70;77.40;;;;;;5071539;28;46774;-64
2021/12/03 09:04:33;;;;;;;7.20;5.43;;;0.90;77.10;;;;;;5074175;27;46787;-66
2021/12/03 09:07:00;;;;;;;10.90;5.80;;;0.90;77.00;;;;;;5073437;27;46963;-66
2021/12/03 09:09:26;;;;;;;7.10;5.05;;;1.00;76.90;;;;;;5077217;28;46477;-65
2021/12/03 09:11:54;;;;;;;8.40;5.65;;;1.10;76.90;;;;;;5077229;28;48067;-64
2021/12/03 09:14:33;;;;;;;9.90;5.75;;;1.20;76.90;;;;;;5066644;27;46380;-65
2021/12/03 09:17:45;;;;;;;6.68;5.15;;;1.20;76.80;;;;;;5067390;28;46345;-66
2021/12/03 09:22:28;;;;;;;6.05;4.25;;;1.40;75.60;;;;;;5071077;27;47108;-65
2021/12/03 09:24:54;;;;;;;6.80;5.03;;;1.50;76.70;;;;;;5073654;28;46761;-65
2021/12/03 09:27:20;;;;;;;10.80;5.22;;;1.50;76.50;;;;;;5071456;28;46513;-65
2021/12/03 09:29:48;;;;;;;7.30;5.10;;;1.60;76.60;;;;;;5071346;27;46371;-66
2021/12/03 09:32:22;;;;;;;6.35;4.30;;;1.60;76.50;;;;;;5072894;28;47861;-66
2021/12/03 09:34:48;;;;;;;6.85;4.70;;;1.80;76.40;;;;;;5067757;27;46410;-66
2021/12/03 09:37:14;;;;;;;5.70;4.20;;;1.90;76.10;;;;;;5073359;28;46684;-66
2021/12/03 09:39:42;;;;;;;5.47;4.23;;;1.90;76.00;;;;;;5069784;28;46470;-65
2021/12/03 09:42:08;;;;;;;6.90;4.75;;;1.90;75.90;;;;;;5069505;28;47754;-65
2021/12/03 09:44:39;;;;;;;8.82;4.70;;;2.00;76.00;;;;;;5073262;27;46525;-65
2021/12/03 09:47:05;;;;;;;12.73;4.95;;;2.10;75.80;;;;;;5071545;28;46378;-66
2021/12/03 09:49:36;;;;;;;11.48;4.88;;;2.10;75.80;;;;;;5076881;28;46344;-67
2021/12/03 09:57:07;;;;;;;6.45;4.75;;;2.20;75.70;;;;;;5070468;27;46272;-66
2021/12/03 10:00:00;;;;;;;5.97;4.28;;;2.30;75.50;;;;;;5068352;28;46604;-64
2021/12/03 10:02:52;;;;;;;8.32;3.75;;;2.30;75.30;;;;;;5071643;28;46989;-64
2021/12/03 10:13:40;;;;;;;7.72;4.32;;;2.60;74.70;;;;;;5066918;27;46455;-66
2021/12/03 10:18:59;;;;;;;10.53;4.60;;;2.70;74.60;;;;;;5070653;27;46315;-65
2021/12/03 10:41:19;;;;;;;9.77;6.07;;;2.90;73.90;;;;;;5036428;28;46602;-66
2021/12/03 10:54:56;;;;;;;8.70;5.82;;;2.80;73.70;;;;;;5073261;28;46268;-66
2021/12/03 11:01:07;;;;;;;13.05;7.82;;;3.00;72.90;;;;;;5074372;28;46365;-66
2021/12/03 11:14:28;;;;;;;8.15;4.95;;;4.80;68.80;;;;;;5076782;28;46413;-66
2021/12/03 12:17:43;;;;;;;7.80;4.75;;;2.80;70.20;;;;;;5067035;28;46448;-65
2021/12/03 13:00:06;;;;;;;7.73;5.10;;;3.90;67.20;;;;;;5069122;28;46291;-66
2021/12/03 13:25:57;;;;;;;13.50;7.53;;;4.20;65.90;;;;;;5068108;28;46274;-65
2021/12/03 13:56:03;;;;;;;6.50;4.20;;;3.90;66.30;;;;;;5069671;28;46521;-65
2021/12/03 14:19:10;;;;;;;10.85;4.05;;;2.50;67.80;;;;;;5072525;28;45808;-66
2021/12/03 14:57:27;;;;;;;5.45;3.40;;;1.80;67.80;;;;;;5066757;28;46302;-65
2021/12/03 15:00:10;;;;;;;6.80;3.88;;;1.70;68.20;;;;;;5071987;28;48807;-65
2021/12/03 15:08:36;;;;;;;6.60;4.40;;;1.30;68.40;;;;;;5070964;28;46354;-66
2021/12/03 15:37:44;;;;;;;11.73;6.85;;;0.80;68.50;;;;;;5074055;27;46509;-66
2021/12/03 16:04:41;;;;;;;74.18;32.88;;;0.50;68.60;;;;;;5072612;28;46421;-64
2021/12/03 16:15:19;;;;;;;46.38;21.55;;;0.40;68.40;;;;;;5076234;28;46852;-65
2021/12/03 16:17:47;;;;;;;35.20;17.30;;;0.30;68.50;;;;;;5072171;27;45820;-66
2021/12/03 16:26:09;;;;;;;25.70;11.40;;;0.20;68.80;;;;;;5026970;28;46514;-66
2021/12/03 16:51:06;;;;;;;36.50;17.80;;;-0.10;69.20;;;;;;5072069;28;46515;-64
2021/12/03 16:53:32;;;;;;;27.30;14.50;;;-0.10;69.20;;;;;;5073974;28;46591;-66
2021/12/03 16:58:25;;;;;;;17.23;11.52;;;-0.10;69.20;;;;;;5075492;27;46974;-66
2021/12/03 17:01:06;;;;;;;14.00;9.40;;;-0.10;69.30;;;;;;5067201;28;46584;-66
2021/12/03 17:04:28;;;;;;;13.10;9.60;;;-0.10;69.20;;;;;;5068728;28;46496;-64
2021/12/03 17:11:48;;;;;;;10.40;6.65;;;-0.30;69.10;;;;;;5069953;28;46218;-65
2021/12/03 17:51:53;;;;;;;35.80;18.40;;;-0.50;68.90;;;;;;5049832;28;46414;-66
2021/12/03 17:54:28;;;;;;;48.85;20.08;;;-0.50;68.90;;;;;;5069927;27;46340;-64
2021/12/03 17:56:57;;;;;;;30.92;13.02;;;-0.40;69.00;;;;;;5068781;28;46478;-67
2021/12/03 17:59:28;;;;;;;16.75;9.50;;;-0.40;69.00;;;;;;5068813;27;46075;-66
2021/12/03 18:07:26;;;;;;;15.85;8.23;;;-0.40;69.00;;;;;;5072662;28;45813;-65
2021/12/03 18:53:42;;;;;;;6.65;4.47;;;0.20;69.50;;;;;;5074193;27;46489;-65
2021/12/03 18:56:19;;;;;;;7.90;5.00;;;0.30;69.40;;;;;;5053962;27;46757;-64
2021/12/03 18:58:58;;;;;;;7.85;4.95;;;0.40;69.30;;;;;;5070496;27;45858;-66
2021/12/03 19:01:29;;;;;;;8.57;5.35;;;0.40;69.10;;;;;;5080459;28;46474;-65
2021/12/03 19:06:29;;;;;;;7.90;5.25;;;0.40;69.40;;;;;;5068411;27;46974;-65
2021/12/03 19:08:59;;;;;;;6.50;5.00;;;0.50;69.50;;;;;;5069853;28;46289;-64
2021/12/03 19:11:30;;;;;;;16.20;6.68;;;0.60;69.10;;;;;;5071648;28;46273;-64
2021/12/03 19:13:56;;;;;;;11.88;6.03;;;0.60;69.10;;;;;;5072217;28;46618;-65
2021/12/03 19:16:24;;;;;;;12.20;5.80;;;0.70;69.00;;;;;;5075240;28;46482;-64
2021/12/03 19:18:53;;;;;;;13.55;6.00;;;0.60;69.00;;;;;;5075020;28;46361;-66
2021/12/03 19:21:25;;;;;;;9.10;5.70;;;0.60;68.90;;;;;;5072905;28;46513;-66
2021/12/03 19:23:59;;;;;;;10.35;5.35;;;0.70;68.90;;;;;;5070810;28;46446;-65
2021/12/03 19:26:31;;;;;;;9.18;4.93;;;0.70;68.70;;;;;;5070919;28;47914;-65
2021/12/03 19:28:59;;;;;;;9.20;5.80;;;0.70;68.70;;;;;;5078317;28;46397;-65
2021/12/03 19:31:27;;;;;;;6.85;4.88;;;0.70;68.80;;;;;;5072659;28;46379;-65
2021/12/03 19:33:53;;;;;;;9.25;4.85;;;0.70;68.80;;;;;;5071913;28;46558;-66
2021/12/03 19:36:22;;;;;;;8.27;4.13;;;0.60;68.80;;;;;;5073334;28;47837;-66
2021/12/03 19:38:49;;;;;;;8.00;5.13;;;0.60;69.00;;;;;;5073272;28;46528;-64
2021/12/03 19:41:24;;;;;;;7.90;4.13;;;0.50;70.50;;;;;;5073719;27;46367;-65
2021/12/03 19:43:55;;;;;;;6.50;4.50;;;0.40;69.70;;;;;;5072742;27;46422;-65
2021/12/03 19:46:31;;;;;;;7.75;4.70;;;0.20;69.50;;;;;;5077572;28;47307;-64
2021/12/03 19:49:05;;;;;;;8.73;4.55;;;0.10;69.40;;;;;;5075697;28;46665;-66
2021/12/03 19:51:34;;;;;;;6.55;3.72;;;-0.10;69.30;;;;;;5076479;28;46430;-64
2021/12/03 19:53:59;;;;;;;7.07;4.32;;;-0.20;69.50;;;;;;5073843;27;46402;-65
2021/12/03 19:56:30;;;;;;;6.80;4.43;;;-0.30;70.00;;;;;;5073097;28;47193;-64
2021/12/03 19:58:58;;;;;;;15.00;11.32;;;-0.40;70.10;;;;;;5072429;27;47872;-65
2021/12/03 20:01:24;;;;;;;10.18;6.90;;;-0.50;70.10;;;;;;5068519;27;46439;-64
2021/12/03 20:03:53;;;;;;;11.07;6.10;;;-0.50;70.30;;;;;;5072484;28;46035;-64
2021/12/03 20:06:21;;;;;;;7.50;4.30;;;-0.60;70.30;;;;;;5070622;28;47909;-66
2021/12/03 20:08:53;;;;;;;7.72;4.38;;;-0.60;70.20;;;;;;5078244;28;46250;-64
2021/12/03 20:11:22;;;;;;;5.30;3.22;;;-0.60;70.20;;;;;;5074886;28;46438;-67
2021/12/03 20:13:50;;;;;;;5.20;3.65;;;-0.70;70.10;;;;;;5089619;27;46760;-66
2021/12/03 20:18:44;;;;;;;7.37;4.27;;;-0.60;70.00;;;;;;5070454;28;46634;-67
2021/12/03 20:21:12;;;;;;;7.65;4.30;;;-0.60;69.80;;;;;;5067381;28;46430;-66
2021/12/03 20:23:53;;;;;;;9.43;4.10;;;-0.60;69.60;;;;;;5088205;27;46635;-66
2021/12/03 20:28:56;;;;;;;8.15;4.35;;;-0.60;69.60;;;;;;5074445;28;46398;-66
2021/12/03 20:31:26;;;;;;;5.65;3.58;;;-0.70;69.80;;;;;;5075690;28;46395;-66
2021/12/03 20:34:11;;;;;;;7.22;3.85;;;-0.80;70.00;;;;;;5072072;28;46578;-66
2021/12/03 20:36:46;;;;;;;7.93;4.43;;;-0.80;71.30;;;;;;5073659;28;48667;-65
2021/12/03 20:39:24;;;;;;;9.77;5.28;;;-0.90;70.10;;;;;;5078837;27;46465;-66
2021/12/03 20:41:59;;;;;;;9.65;4.82;;;-1.00;70.10;;;;;;5077644;28;45870;-64
2021/12/03 20:49:41;;;;;;;8.73;4.80;;;-1.00;70.40;;;;;;5076299;28;46361;-65
2021/12/03 20:52:18;;;;;;;7.95;4.03;;;-1.00;70.40;;;;;;5077384;27;46467;-66
2021/12/03 20:57:21;;;;;;;10.10;5.13;;;-1.00;70.50;;;;;;5074664;28;46458;-65
2021/12/03 21:10:29;;;;;;;6.85;3.72;;;-0.70;68.90;;;;;;5068302;28;46442;-66